createdAt,value
2018-10-19T00:02:23.033Z,4.40
2018-10-19T00:04:52.033Z,3.10
2018-10-19T00:07:21.055Z,2.17
2018-10-19T00:09:50.142Z,2.77
2018-10-19T00:12:19.175Z,3.20
2018-10-19T00:14:48.154Z,2.13
2018-10-19T00:17:17.131Z,1.30
2018-10-19T00:19:46.050Z,1.70
2018-10-19T00:22:15.013Z,1.90
2018-10-19T00:24:43.974Z,3.00
2018-10-19T00:27:12.998Z,2.70
2018-10-19T00:29:41.846Z,2.83
2018-10-19T00:32:10.745Z,2.27
2018-10-19T00:34:39.661Z,1.73
2018-10-19T00:37:08.681Z,1.87
2018-10-19T00:39:37.664Z,2.80
2018-10-19T00:42:06.608Z,2.30
2018-10-19T00:44:35.573Z,1.83
2018-10-19T00:47:04.701Z,1.97
2018-10-19T00:49:33.588Z,1.70
2018-10-19T00:52:02.538Z,1.10
2018-10-19T00:54:31.641Z,1.20
2018-10-19T00:57:00.765Z,1.10
2018-10-19T00:59:29.698Z,1.50
2018-10-19T01:01:58.765Z,1.27
2018-10-19T01:04:27.694Z,1.53
2018-10-19T01:06:56.599Z,1.20
2018-10-19T01:09:25.578Z,1.37
2018-10-19T01:11:54.571Z,1.47
2018-10-19T01:14:23.579Z,1.30
2018-10-19T01:16:52.653Z,1.20
2018-10-19T01:19:21.572Z,1.73
2018-10-19T01:21:50.535Z,1.30
2018-10-19T01:24:19.660Z,1.30
2018-10-19T01:26:48.642Z,1.37
2018-10-19T01:29:17.642Z,1.30
2018-10-19T01:31:46.581Z,1.57
2018-10-19T01:34:15.719Z,1.13
2018-10-19T01:36:46.749Z,1.70
2018-10-19T01:39:15.879Z,1.40
2018-10-19T01:41:44.768Z,1.30
2018-10-19T01:44:13.703Z,1.10
2018-10-19T01:46:48.341Z,1.20
2018-10-19T01:49:18.214Z,1.00
2018-10-19T01:51:47.145Z,1.07
2018-10-19T01:54:16.102Z,1.20
2018-10-19T01:56:45.008Z,1.30
2018-10-19T01:59:14.042Z,1.07
2018-10-19T02:01:42.913Z,1.20
2018-10-19T02:04:11.856Z,1.30
2018-10-19T02:06:40.817Z,1.10
2018-10-19T02:09:09.801Z,1.20
2018-10-19T02:11:38.711Z,1.40
2018-10-19T02:14:07.627Z,1.20
2018-10-19T02:16:36.735Z,1.50
2018-10-19T02:19:05.933Z,1.30
2018-10-19T02:21:34.881Z,1.20
2018-10-19T02:24:03.830Z,1.20
2018-10-19T02:26:32.752Z,1.30
2018-10-19T02:29:01.704Z,1.20
2018-10-19T02:31:30.674Z,1.13
2018-10-19T02:33:59.615Z,1.50
2018-10-19T02:36:28.566Z,1.60
2018-10-19T02:38:57.685Z,1.60
2018-10-19T02:41:26.497Z,1.03
2018-10-19T02:43:55.466Z,1.20
2018-10-19T02:46:24.390Z,1.30
2018-10-19T02:48:53.327Z,1.03
2018-10-19T02:51:22.224Z,1.20
2018-10-19T02:53:51.219Z,1.40
2018-10-19T02:56:20.163Z,2.10
2018-10-19T02:58:49.080Z,1.30
2018-10-19T03:01:18.209Z,1.20
2018-10-19T03:03:47.143Z,1.10
2018-10-19T03:06:16.133Z,0.80
2018-10-19T03:08:45.060Z,1.40
2018-10-19T03:11:14.061Z,1.40
2018-10-19T03:13:43.018Z,1.20
2018-10-19T03:16:11.945Z,1.30
2018-10-19T03:18:40.921Z,1.60
2018-10-19T03:21:10.107Z,1.30
2018-10-19T03:23:39.335Z,0.90
2018-10-19T03:26:09.159Z,1.20
2018-10-19T03:28:38.065Z,1.27
2018-10-19T03:31:07.148Z,1.17
2018-10-19T03:33:35.962Z,1.00
2018-10-19T03:36:04.917Z,1.17
2018-10-19T03:38:33.882Z,2.43
2018-10-19T03:41:02.797Z,2.27
2018-10-19T03:43:33.120Z,2.17
2018-10-19T03:46:02.067Z,2.07
2018-10-19T03:48:31.042Z,1.53
2018-10-19T03:50:59.988Z,1.37
2018-10-19T03:53:28.980Z,1.37
2018-10-19T03:55:57.909Z,1.27
2018-10-19T03:58:26.826Z,0.93
2018-10-19T04:00:55.771Z,1.67
2018-10-19T04:03:25.026Z,1.03
2018-10-19T04:05:54.601Z,1.00
2018-10-19T04:08:23.528Z,1.43
2018-10-19T04:10:52.466Z,1.30
2018-10-19T04:13:21.447Z,1.10
2018-10-19T04:15:50.343Z,1.67
2018-10-19T04:18:19.219Z,1.23
2018-10-19T04:20:48.188Z,1.17
2018-10-19T04:23:17.175Z,1.20
2018-10-19T04:25:46.014Z,1.60
2018-10-19T04:28:14.958Z,1.23
2018-10-19T04:30:43.921Z,1.20
2018-10-19T04:33:12.941Z,1.23
2018-10-19T04:35:41.830Z,1.10
2018-10-19T04:38:10.722Z,1.40
2018-10-19T04:40:39.661Z,1.40
2018-10-19T04:43:08.600Z,1.90
2018-10-19T04:45:37.532Z,2.10
2018-10-19T04:48:06.528Z,1.30
2018-10-19T04:50:35.439Z,1.40
2018-10-19T04:53:04.403Z,1.63
2018-10-19T04:55:33.313Z,1.00
2018-10-19T04:58:02.260Z,1.43
2018-10-19T05:00:31.200Z,1.60
2018-10-19T05:03:00.127Z,1.97
2018-10-19T05:05:29.217Z,1.80
2018-10-19T05:07:58.054Z,1.00
2018-10-19T05:10:26.984Z,1.43
2018-10-19T05:12:55.884Z,1.10
2018-10-19T05:15:24.783Z,1.33
2018-10-19T05:17:53.743Z,1.00
2018-10-19T05:20:22.657Z,1.10
2018-10-19T05:22:51.542Z,1.10
2018-10-19T05:25:20.473Z,1.10
2018-10-19T05:27:49.410Z,1.40
2018-10-19T05:30:18.326Z,1.07
2018-10-19T05:32:47.323Z,1.00
2018-10-19T05:35:16.326Z,1.20
2018-10-19T05:37:45.231Z,1.20
2018-10-19T05:40:14.201Z,1.60
2018-10-19T05:42:43.179Z,1.67
2018-10-19T05:45:12.626Z,1.70
2018-10-19T05:47:41.599Z,1.67
2018-10-19T05:50:11.728Z,2.07
2018-10-19T05:52:40.682Z,2.37
2018-10-19T05:55:10.415Z,2.47
2018-10-19T05:57:39.323Z,4.70
2018-10-19T06:00:09.178Z,3.30
2018-10-19T06:02:38.354Z,2.50
2018-10-19T06:05:07.733Z,1.90
2018-10-19T06:07:36.612Z,1.63
2018-10-19T06:10:06.504Z,1.70
2018-10-19T06:12:35.443Z,1.67
2018-10-19T06:15:04.958Z,2.40
2018-10-19T06:17:33.923Z,1.77
2018-10-19T06:20:02.938Z,1.90
2018-10-19T06:22:31.796Z,1.90
2018-10-19T06:25:00.717Z,1.77
2018-10-19T06:27:29.686Z,2.03
2018-10-19T06:29:58.749Z,1.60
2018-10-19T06:32:27.676Z,1.83
2018-10-19T06:34:56.633Z,1.60
2018-10-19T06:37:25.545Z,1.53
2018-10-19T06:39:54.484Z,2.30
2018-10-19T06:42:23.418Z,2.10
2018-10-19T06:44:52.336Z,2.10
2018-10-19T06:47:21.375Z,2.00
2018-10-19T06:49:50.245Z,1.70
2018-10-19T06:52:19.240Z,1.93
2018-10-19T06:54:48.158Z,2.10
2018-10-19T06:57:17.050Z,2.40
2018-10-19T06:59:46.124Z,2.83
2018-10-19T07:02:15.148Z,1.90
2018-10-19T07:04:44.035Z,2.20
2018-10-19T07:07:12.971Z,2.30
2018-10-19T07:09:41.901Z,2.47
2018-10-19T07:12:10.846Z,1.93
2018-10-19T07:14:39.776Z,1.87
2018-10-19T07:17:08.810Z,1.90
2018-10-19T07:19:37.710Z,2.20
2018-10-19T07:22:06.638Z,2.53
2018-10-19T07:24:35.586Z,2.70
2018-10-19T07:27:04.763Z,2.87
2018-10-19T07:29:33.871Z,3.00
2018-10-19T07:32:02.890Z,3.03
2018-10-19T07:34:31.792Z,2.70
2018-10-19T07:37:00.707Z,2.77
2018-10-19T07:39:29.925Z,3.07
2018-10-19T07:41:58.844Z,3.20
2018-10-19T07:44:27.767Z,3.03
2018-10-19T07:46:56.716Z,3.07
2018-10-19T07:49:26.026Z,3.23
2018-10-19T07:51:55.024Z,3.57
2018-10-19T07:54:23.981Z,2.63
2018-10-19T07:56:52.917Z,2.83
2018-10-19T07:59:21.912Z,3.13
2018-10-19T08:01:50.809Z,3.27
2018-10-19T08:04:19.731Z,3.50
2018-10-19T08:06:48.679Z,3.50
2018-10-19T08:09:17.600Z,3.50
2018-10-19T08:11:46.580Z,3.40
2018-10-19T08:14:15.557Z,3.77
2018-10-19T08:16:44.482Z,4.07
2018-10-19T08:19:13.419Z,3.80
2018-10-19T08:21:42.340Z,3.70
2018-10-19T08:24:11.286Z,4.23
2018-10-19T08:26:40.183Z,3.80
2018-10-19T08:29:09.222Z,3.63
2018-10-19T08:31:38.109Z,3.87
2018-10-19T08:34:07.062Z,4.63
2018-10-19T08:36:35.992Z,4.00
2018-10-19T08:39:07.021Z,4.17
2018-10-19T08:41:36.176Z,3.60
2018-10-19T08:44:05.132Z,5.10
2018-10-19T08:46:37.099Z,4.27
2018-10-19T08:49:07.742Z,5.10
2018-10-19T08:51:36.669Z,4.93
2018-10-19T08:54:05.752Z,4.60
2018-10-19T08:56:34.648Z,5.20
2018-10-19T08:59:03.815Z,4.63
2018-10-19T09:01:32.677Z,5.00
2018-10-19T09:04:01.628Z,4.93
2018-10-19T09:06:30.534Z,3.77
2018-10-19T09:08:59.486Z,3.57
2018-10-19T09:11:28.480Z,3.90
2018-10-19T09:13:57.386Z,3.93
2018-10-19T09:16:26.652Z,4.20
2018-10-19T09:18:55.551Z,3.60
2018-10-19T09:21:24.622Z,3.43
2018-10-19T09:23:53.643Z,3.70
2018-10-19T09:26:22.581Z,3.73
2018-10-19T09:28:51.518Z,2.90
2018-10-19T09:31:20.505Z,2.73
2018-10-19T09:33:49.455Z,2.70
2018-10-19T09:36:18.560Z,3.20
2018-10-19T09:38:47.369Z,2.43
2018-10-19T09:41:16.323Z,2.40
2018-10-19T09:43:45.383Z,2.60
2018-10-19T09:46:14.327Z,2.60
2018-10-19T09:48:43.252Z,3.20
2018-10-19T09:51:12.301Z,3.53
2018-10-19T09:53:41.419Z,2.73
2018-10-19T09:56:10.403Z,2.73
2018-10-19T09:58:39.317Z,2.37
2018-10-19T10:01:13.802Z,2.90
2018-10-19T10:03:44.265Z,3.00
2018-10-19T10:06:13.307Z,3.13
2018-10-19T10:08:42.252Z,3.40
2018-10-19T10:11:11.315Z,3.03
2018-10-19T10:13:40.183Z,2.27
2018-10-19T10:16:09.075Z,1.77
2018-10-19T10:18:38.129Z,1.73
2018-10-19T10:21:07.656Z,1.73
2018-10-19T10:23:36.630Z,1.57
2018-10-19T10:26:05.599Z,1.77
2018-10-19T10:28:34.635Z,1.30
2018-10-19T10:31:03.749Z,2.00
2018-10-19T10:33:32.769Z,1.40
2018-10-19T10:36:01.856Z,1.47
2018-10-19T10:38:30.855Z,1.57
2018-10-19T10:40:59.807Z,3.37
2018-10-19T10:43:28.718Z,1.60
2018-10-19T10:45:57.662Z,1.57
2018-10-19T10:48:26.632Z,2.20
2018-10-19T10:50:56.121Z,1.60
2018-10-19T10:53:25.085Z,2.17
2018-10-19T10:55:54.035Z,1.40
2018-10-19T10:58:22.957Z,1.60
2018-10-19T11:00:51.921Z,1.23
2018-10-19T11:03:20.897Z,1.40
2018-10-19T11:05:49.961Z,1.20
2018-10-19T11:08:18.955Z,1.33
2018-10-19T11:10:47.871Z,1.87
2018-10-19T11:13:16.913Z,2.00
2018-10-19T11:15:46.079Z,1.50
2018-10-19T11:18:15.011Z,1.67
2018-10-19T11:20:43.981Z,1.47
2018-10-19T11:23:12.925Z,1.33
2018-10-19T11:25:41.825Z,1.47
2018-10-19T11:28:10.844Z,1.53
2018-10-19T11:30:39.817Z,1.50
2018-10-19T11:33:08.715Z,1.77
2018-10-19T11:35:38.759Z,1.43
2018-10-19T11:38:07.738Z,1.83
2018-10-19T11:40:37.705Z,1.80
2018-10-19T11:43:06.892Z,1.30
2018-10-19T11:45:37.034Z,2.53
2018-10-19T11:48:05.979Z,1.50
2018-10-19T11:50:34.921Z,2.10
2018-10-19T11:53:03.902Z,1.30
2018-10-19T11:55:32.908Z,1.60
2018-10-19T11:58:01.985Z,1.70
2018-10-19T12:00:30.905Z,1.90
2018-10-19T12:02:59.871Z,1.53
2018-10-19T12:05:28.792Z,1.87
2018-10-19T12:07:57.996Z,1.50
2018-10-19T12:10:27.059Z,2.00
2018-10-19T12:12:56.135Z,1.73
2018-10-19T12:15:25.099Z,2.63
2018-10-19T12:17:54.091Z,1.87
2018-10-19T12:20:23.964Z,2.27
2018-10-19T12:22:52.844Z,2.00
2018-10-19T12:25:21.780Z,1.90
2018-10-19T12:27:50.744Z,2.17
2018-10-19T12:30:19.667Z,1.97
2018-10-19T12:32:48.595Z,2.40
2018-10-19T12:35:17.539Z,2.50
2018-10-19T12:37:46.455Z,1.87
2018-10-19T12:40:15.438Z,1.87
2018-10-19T12:42:44.363Z,2.13
2018-10-19T12:46:32.489Z,2.47
2018-10-19T12:49:01.524Z,1.73
2018-10-19T12:51:30.431Z,2.07
2018-10-19T12:53:59.556Z,2.27
2018-10-19T12:56:28.519Z,2.03
2018-10-19T12:58:57.622Z,1.93
2018-10-19T13:01:27.663Z,2.40
2018-10-19T13:03:56.689Z,1.90
2018-10-19T13:06:33.045Z,2.13
2018-10-19T13:09:01.997Z,2.20
2018-10-19T13:11:30.963Z,2.07
2018-10-19T13:13:59.935Z,2.30
2018-10-19T13:16:28.841Z,2.17
2018-10-19T13:18:57.827Z,1.90
2018-10-19T13:21:26.747Z,2.20
2018-10-19T13:23:55.700Z,2.50
2018-10-19T13:26:24.676Z,2.13
2018-10-19T13:28:53.585Z,2.57
2018-10-19T13:31:22.555Z,2.63
2018-10-19T13:33:51.500Z,2.90
2018-10-19T13:36:20.438Z,3.00
2018-10-19T13:38:49.433Z,2.93
2018-10-19T13:41:18.412Z,2.63
2018-10-19T13:43:47.355Z,2.67
2018-10-19T13:46:16.366Z,2.77
2018-10-19T13:48:45.315Z,2.57
2018-10-19T13:51:14.375Z,2.70
2018-10-19T13:53:43.288Z,2.30
2018-10-19T13:56:12.223Z,2.40
2018-10-19T13:58:41.171Z,2.30
2018-10-19T14:01:10.159Z,2.73
2018-10-19T14:03:39.112Z,2.23
2018-10-19T14:06:08.052Z,2.20
2018-10-19T14:08:37.261Z,2.43
2018-10-19T14:11:06.177Z,2.67
2018-10-19T14:13:35.090Z,2.80
2018-10-19T14:16:04.210Z,2.13
2018-10-19T14:18:33.384Z,2.40
2018-10-19T14:21:02.421Z,2.67
2018-10-19T14:23:31.323Z,2.53
2018-10-19T14:26:00.326Z,2.13
2018-10-19T14:28:29.227Z,2.60
2018-10-19T14:30:58.179Z,2.30
2018-10-19T14:33:27.283Z,2.57
2018-10-19T14:35:56.129Z,2.60
2018-10-19T14:38:25.029Z,2.40
2018-10-19T14:40:54.014Z,2.40
2018-10-19T14:43:22.997Z,2.80
2018-10-19T14:45:51.951Z,2.20
2018-10-19T14:48:20.922Z,2.73
2018-10-19T14:50:49.845Z,2.43
2018-10-19T14:53:18.783Z,2.13
2018-10-19T14:55:47.743Z,2.30
2018-10-19T14:58:16.670Z,2.30
2018-10-19T15:00:45.916Z,2.47
2018-10-19T15:03:14.863Z,2.30
2018-10-19T15:05:43.840Z,2.63
2018-10-19T15:08:12.806Z,2.83
2018-10-19T15:10:41.983Z,3.00
2018-10-19T15:13:10.701Z,2.07
2018-10-19T15:15:39.658Z,2.37
2018-10-19T15:18:08.666Z,2.40
2018-10-19T15:20:37.548Z,1.80
2018-10-19T15:23:06.473Z,2.07
2018-10-19T15:25:35.462Z,2.07
2018-10-19T15:28:04.398Z,2.07
2018-10-19T15:30:33.400Z,2.43
2018-10-19T15:33:02.341Z,2.07
2018-10-19T15:35:31.221Z,2.00
2018-10-19T15:38:00.179Z,2.03
2018-10-19T15:40:29.114Z,2.10
2018-10-19T15:42:58.060Z,2.30
2018-10-19T15:45:26.991Z,2.47
2018-10-19T15:47:56.238Z,2.50
2018-10-19T15:50:25.436Z,2.40
2018-10-19T15:52:54.459Z,2.63
2018-10-19T15:55:23.421Z,2.53
2018-10-19T15:57:52.358Z,2.80
2018-10-19T16:00:21.456Z,2.57
2018-10-19T16:02:50.253Z,2.47
2018-10-19T16:05:19.222Z,2.67
2018-10-19T16:07:48.148Z,2.87
2018-10-19T16:10:17.166Z,2.47
2018-10-19T16:12:46.139Z,3.43
2018-10-19T16:15:15.143Z,3.13
2018-10-19T16:17:44.161Z,2.43
2018-10-19T16:20:13.040Z,2.97
2018-10-19T16:22:41.974Z,3.60
2018-10-19T16:25:11.510Z,2.90
2018-10-19T16:27:40.516Z,2.60
2018-10-19T16:30:10.605Z,2.70
2018-10-19T16:32:40.288Z,2.77
2018-10-19T16:35:09.557Z,3.30
2018-10-19T16:37:38.795Z,3.20
2018-10-19T16:40:07.852Z,4.70
2018-10-19T16:42:37.069Z,7.50
2018-10-19T16:45:07.181Z,5.10
2018-10-19T16:47:36.156Z,7.20
2018-10-19T16:50:05.169Z,6.70
2018-10-19T16:52:34.208Z,4.93
2018-10-19T16:55:03.136Z,4.17
2018-10-19T16:57:32.498Z,4.97
2018-10-19T17:00:01.455Z,4.60
2018-10-19T17:02:30.542Z,4.03
2018-10-19T17:04:59.495Z,5.53
2018-10-19T17:07:28.403Z,6.00
2018-10-19T17:09:57.397Z,5.27
2018-10-19T17:12:26.322Z,5.60
2018-10-19T17:14:55.302Z,5.67
2018-10-19T17:17:24.350Z,6.03
2018-10-19T17:19:53.318Z,6.23
2018-10-19T17:22:22.258Z,6.80
2018-10-19T17:24:51.307Z,7.47
2018-10-19T17:27:20.283Z,7.53
2018-10-19T17:29:49.228Z,7.53
2018-10-19T17:32:18.213Z,7.57
2018-10-19T17:34:47.172Z,7.67
2018-10-19T17:37:16.215Z,8.70
2018-10-19T17:39:45.150Z,9.37
2018-10-19T17:42:14.146Z,9.03
2018-10-19T17:44:43.094Z,9.43
2018-10-19T17:47:12.083Z,7.47
2018-10-19T17:49:41.023Z,5.73
2018-10-19T17:52:10.014Z,5.23
2018-10-19T17:54:38.953Z,4.90
2018-10-19T17:57:08.001Z,4.23
2018-10-19T17:59:36.938Z,3.67
2018-10-19T18:02:06.157Z,4.20
2018-10-19T18:04:35.166Z,3.40
2018-10-19T18:07:04.086Z,4.20
2018-10-19T18:09:33.074Z,4.53
2018-10-19T18:12:02.071Z,4.53
2018-10-19T18:14:31.027Z,3.80
2018-10-19T18:16:59.971Z,3.80
2018-10-19T18:19:28.893Z,3.87
2018-10-19T18:21:57.999Z,3.57
2018-10-19T18:24:26.868Z,3.77
2018-10-19T18:26:55.865Z,3.53
2018-10-19T18:29:24.801Z,3.10
2018-10-19T18:31:53.853Z,3.00
2018-10-19T18:34:22.964Z,3.13
2018-10-19T18:36:51.915Z,3.40
2018-10-19T18:39:20.886Z,2.97
2018-10-19T18:41:49.806Z,3.20
2018-10-19T18:44:18.729Z,2.90
2018-10-19T18:46:47.713Z,3.10
2018-10-19T18:49:16.660Z,3.53
2018-10-19T18:51:45.664Z,4.30
2018-10-19T18:54:14.617Z,3.33
2018-10-19T18:56:43.573Z,3.53
2018-10-19T18:59:12.647Z,4.00
2018-10-19T19:01:41.569Z,3.90
2018-10-19T19:04:10.530Z,4.17
2018-10-19T19:06:39.518Z,4.83
2018-10-19T19:09:10.432Z,5.53
2018-10-19T19:11:39.394Z,6.33
2018-10-19T19:14:08.393Z,6.27
2018-10-19T19:16:37.316Z,6.30
2018-10-19T19:19:06.347Z,5.30
2018-10-19T19:21:35.367Z,4.30
2018-10-19T19:24:09.588Z,3.87
2018-10-19T19:26:38.532Z,3.90
2018-10-19T19:29:07.529Z,5.80
2018-10-19T19:31:36.465Z,5.63
2018-10-19T19:34:10.764Z,6.07
2018-10-19T19:36:39.741Z,5.00
2018-10-19T19:39:09.349Z,4.97
2018-10-19T19:41:43.669Z,4.73
2018-10-19T19:44:12.720Z,3.60
2018-10-19T19:46:41.695Z,3.53
2018-10-19T19:49:16.143Z,4.37
2018-10-19T19:51:45.145Z,3.50
2018-10-19T19:54:14.142Z,3.60
2018-10-19T19:56:43.120Z,4.25
2018-10-19T19:59:12.147Z,4.58
2018-10-19T20:01:41.059Z,4.90
2018-10-19T20:04:10.001Z,4.43
2018-10-19T20:06:39.247Z,4.10
2018-10-19T20:09:08.186Z,4.20
2018-10-19T20:11:37.093Z,3.87
2018-10-19T20:14:06.240Z,3.60
2018-10-19T20:16:35.121Z,3.57
2018-10-19T20:19:04.038Z,3.50
2018-10-19T20:21:32.961Z,3.80
2018-10-19T20:24:01.893Z,3.53
2018-10-19T20:26:30.917Z,3.90
2018-10-19T20:28:59.853Z,3.73
2018-10-19T20:31:28.779Z,4.20
2018-10-19T20:33:57.717Z,3.80
2018-10-19T20:36:26.625Z,4.03
2018-10-19T20:38:55.592Z,3.63
2018-10-19T20:41:24.543Z,3.80
2018-10-19T20:43:53.471Z,3.53
2018-10-19T20:46:22.403Z,4.43
2018-10-19T20:48:51.353Z,4.07
2018-10-19T20:51:20.340Z,3.73
2018-10-19T20:53:49.691Z,4.13
2018-10-19T20:56:18.667Z,4.50
2018-10-19T20:58:47.572Z,4.70
2018-10-19T21:01:16.660Z,4.40
2018-10-19T21:03:45.561Z,4.00
2018-10-19T21:06:14.511Z,4.33
2018-10-19T21:08:43.477Z,3.90
2018-10-19T21:11:12.513Z,4.33
2018-10-19T21:13:41.661Z,5.77
2018-10-19T21:16:10.635Z,6.80
2018-10-19T21:18:39.582Z,5.27
2018-10-19T21:21:08.859Z,4.77
2018-10-19T21:23:37.746Z,4.70
2018-10-19T21:26:06.691Z,4.70
2018-10-19T21:28:35.601Z,4.47
2018-10-19T21:31:04.547Z,4.77
2018-10-19T21:33:33.488Z,4.70
2018-10-19T21:36:02.435Z,5.00
2018-10-19T21:38:31.619Z,4.60
2018-10-19T21:41:00.608Z,5.27
2018-10-19T21:43:29.460Z,4.70
2018-10-19T21:45:58.391Z,5.17
2018-10-19T21:48:27.367Z,5.27
2018-10-19T21:50:56.362Z,5.27
2018-10-19T21:53:25.298Z,5.33
2018-10-19T21:55:54.247Z,4.60
2018-10-19T21:58:23.205Z,4.37
2018-10-19T22:00:52.423Z,4.63
2018-10-19T22:03:21.363Z,4.53
2018-10-19T22:05:50.287Z,4.37
2018-10-19T22:08:19.274Z,3.87
2018-10-19T22:10:48.203Z,4.13
2018-10-19T22:13:17.093Z,4.00
2018-10-19T22:15:46.060Z,4.40
2018-10-19T22:18:15.009Z,4.77
2018-10-19T22:20:43.988Z,3.93
2018-10-19T22:23:16.030Z,4.73
2018-10-19T22:25:45.624Z,4.47
2018-10-19T22:28:27.802Z,4.50
2018-10-19T22:30:58.325Z,4.00
2018-10-19T22:33:30.451Z,4.60
2018-10-19T22:36:02.332Z,4.00
2018-10-19T22:38:32.679Z,4.30
2018-10-19T22:41:02.619Z,4.17
2018-10-19T22:43:33.028Z,4.57
2018-10-19T22:46:09.369Z,5.40
2018-10-19T22:48:40.053Z,4.17
2018-10-19T22:51:10.296Z,4.70
2018-10-19T22:53:41.182Z,4.10
2018-10-19T22:56:13.367Z,5.00
2018-10-19T22:58:47.636Z,4.40
2018-10-19T23:01:17.303Z,4.77
2018-10-19T23:03:47.965Z,5.30
2018-10-19T23:06:21.373Z,4.53
2018-10-19T23:08:55.011Z,5.77
2018-10-19T23:11:27.288Z,4.40
2018-10-19T23:13:56.293Z,5.23
2018-10-19T23:16:25.337Z,5.07
2018-10-19T23:18:54.828Z,5.60
2018-10-19T23:21:23.796Z,4.40
2018-10-19T23:23:52.710Z,4.77
2018-10-19T23:26:21.664Z,4.80
2018-10-19T23:28:50.607Z,5.17
2018-10-19T23:31:19.698Z,5.63
2018-10-19T23:33:48.509Z,5.10
2018-10-19T23:36:17.492Z,4.97
2018-10-19T23:38:46.436Z,5.40
2018-10-19T23:41:15.416Z,5.40
2018-10-19T23:43:44.340Z,4.27
2018-10-19T23:46:13.237Z,4.40
2018-10-19T23:48:42.207Z,4.80
2018-10-19T23:51:11.131Z,4.63
2018-10-19T23:53:40.060Z,4.43
2018-10-19T23:56:09.042Z,4.10
2018-10-19T23:58:38.004Z,4.93
